createdAt,value
2022-08-14T00:00:22.633Z,19.02
2022-08-14T00:00:54.334Z,18.87
2022-08-14T00:01:26.208Z,18.91
2022-08-14T00:02:05.197Z,18.87
2022-08-14T00:02:36.870Z,18.88
2022-08-14T00:03:08.468Z,18.85
2022-08-14T00:03:40.677Z,18.87
2022-08-14T00:04:31.871Z,18.83
2022-08-14T00:05:05.876Z,18.76
2022-08-14T00:05:37.457Z,18.79
2022-08-14T00:06:25.500Z,18.76
2022-08-14T00:07:00.751Z,18.81
2022-08-14T00:07:32.654Z,18.71
2022-08-14T00:08:05.675Z,18.76
2022-08-14T00:08:46.195Z,18.83
2022-08-14T00:09:17.748Z,18.84
2022-08-14T00:10:02.598Z,18.78
2022-08-14T00:10:51.163Z,18.79
2022-08-14T00:11:24.607Z,18.84
2022-08-14T00:11:56.694Z,18.89
2022-08-14T00:12:33.447Z,18.89
2022-08-14T00:13:21.849Z,18.94
2022-08-14T00:13:53.501Z,18.94
2022-08-14T00:14:26.571Z,18.85
2022-08-14T00:14:58.281Z,18.88
2022-08-14T00:15:43.341Z,18.79
2022-08-14T00:16:41.237Z,18.75
2022-08-14T00:17:07.634Z,18.67
2022-08-14T00:17:48.053Z,18.65
2022-08-14T00:18:30.652Z,18.67
2022-08-14T00:19:21.290Z,18.57
2022-08-14T00:19:53.203Z,18.44
2022-08-14T00:20:30.738Z,18.51
2022-08-14T00:21:11.151Z,18.44
2022-08-14T00:21:43.254Z,18.37
2022-08-14T00:22:44.412Z,18.29
2022-08-14T00:23:16.569Z,18.30
2022-08-14T00:23:53.861Z,18.27
2022-08-14T00:24:29.121Z,18.33
2022-08-14T00:25:02.673Z,18.29
2022-08-14T00:25:42.350Z,18.23
2022-08-14T00:26:21.610Z,18.27
2022-08-14T00:26:54.812Z,18.22
2022-08-14T00:27:26.531Z,18.23
2022-08-14T00:28:02.771Z,18.22
2022-08-14T00:28:37.053Z,18.24
2022-08-14T00:29:08.747Z,18.22
2022-08-14T00:29:43.015Z,18.29
2022-08-14T00:30:17.455Z,18.34
2022-08-14T00:30:50.725Z,18.30
2022-08-14T00:31:35.166Z,18.30
2022-08-14T00:32:52.129Z,18.36
2022-08-14T00:33:06.597Z,18.26
2022-08-14T00:33:50.646Z,18.33
2022-08-14T00:34:37.021Z,18.30
2022-08-14T00:35:16.457Z,18.32
2022-08-14T00:36:34.960Z,18.38
2022-08-14T00:36:49.051Z,18.40
2022-08-14T00:37:21.255Z,18.38
2022-08-14T00:37:53.093Z,18.37
2022-08-14T00:38:24.721Z,18.27
2022-08-14T00:38:58.934Z,18.29
2022-08-14T00:39:32.869Z,18.27
2022-08-14T00:40:27.428Z,18.36
2022-08-14T00:40:57.800Z,18.41
2022-08-14T00:41:33.479Z,18.41
2022-08-14T00:42:05.901Z,18.40
2022-08-14T00:42:55.057Z,18.38
2022-08-14T00:43:32.362Z,18.32
2022-08-14T00:44:04.348Z,18.38
2022-08-14T00:44:37.300Z,18.34
2022-08-14T00:45:15.861Z,18.40
2022-08-14T00:45:51.664Z,18.40
2022-08-14T00:46:32.801Z,18.40
2022-08-14T00:47:10.676Z,18.40
2022-08-14T00:47:45.062Z,18.43
2022-08-14T00:48:34.861Z,18.46
2022-08-14T00:49:11.468Z,18.44
2022-08-14T00:49:46.019Z,18.48
2022-08-14T00:50:22.016Z,18.54
2022-08-14T00:50:55.042Z,18.58
2022-08-14T00:51:38.090Z,18.61
2022-08-14T00:52:18.272Z,18.60
2022-08-14T00:52:52.603Z,18.50
2022-08-14T00:53:25.520Z,18.51
2022-08-14T00:53:57.393Z,18.51
2022-08-14T00:54:29.280Z,18.41
2022-08-14T00:55:02.770Z,18.43
2022-08-14T00:55:36.280Z,18.46
2022-08-14T00:56:10.939Z,18.36
2022-08-14T00:56:47.072Z,18.33
2022-08-14T00:57:21.314Z,18.34
2022-08-14T00:58:13.061Z,18.40
2022-08-14T00:58:48.532Z,18.43
2022-08-14T00:59:20.421Z,18.46
2022-08-14T00:59:52.535Z,18.41
2022-08-14T01:00:37.543Z,18.36
2022-08-14T01:01:19.145Z,18.37
2022-08-14T01:01:51.542Z,18.37
2022-08-14T01:02:28.189Z,18.23
2022-08-14T01:03:05.480Z,18.00
2022-08-14T01:03:39.753Z,17.93
2022-08-14T01:04:38.188Z,17.96
2022-08-14T01:05:07.700Z,18.07
2022-08-14T01:05:50.662Z,18.13
2022-08-14T01:06:25.728Z,18.13
2022-08-14T01:07:07.465Z,18.09
2022-08-14T01:07:50.314Z,18.05
2022-08-14T01:08:57.806Z,18.00
2022-08-14T01:09:24.141Z,17.93
2022-08-14T01:10:05.215Z,17.95
2022-08-14T01:10:53.141Z,17.99
2022-08-14T01:11:25.338Z,17.96
2022-08-14T01:12:05.238Z,17.93
2022-08-14T01:12:40.371Z,17.89
2022-08-14T01:13:17.021Z,17.92
2022-08-14T01:14:00.745Z,17.92
2022-08-14T01:14:33.084Z,17.97
2022-08-14T01:15:09.400Z,18.00
2022-08-14T01:15:58.014Z,18.05
2022-08-14T01:16:32.832Z,18.13
2022-08-14T01:17:04.937Z,18.07
2022-08-14T01:17:59.212Z,18.10
2022-08-14T01:19:00.981Z,18.17
2022-08-14T01:19:53.151Z,18.16
2022-08-14T01:20:44.644Z,18.17
2022-08-14T01:21:17.502Z,18.16
2022-08-14T01:21:53.510Z,18.20
2022-08-14T01:22:26.622Z,18.12
2022-08-14T01:22:58.707Z,18.12
2022-08-14T01:23:41.719Z,18.17
2022-08-14T01:24:24.642Z,18.16
2022-08-14T01:25:04.092Z,18.14
2022-08-14T01:25:37.532Z,18.14
2022-08-14T01:26:12.214Z,18.12
2022-08-14T01:26:55.347Z,18.05
2022-08-14T01:27:28.633Z,17.97
2022-08-14T01:28:01.420Z,17.99
2022-08-14T01:28:54.307Z,17.95
2022-08-14T01:29:59.201Z,17.90
2022-08-14T01:30:36.555Z,17.95
2022-08-14T01:31:17.365Z,17.85
2022-08-14T01:31:52.463Z,17.85
2022-08-14T01:32:24.171Z,17.78
2022-08-14T01:32:56.092Z,17.75
2022-08-14T01:33:30.184Z,17.75
2022-08-14T01:35:18.068Z,17.76
2022-08-14T01:35:20.998Z,17.75
2022-08-14T01:36:04.382Z,17.75
2022-08-14T01:36:39.783Z,17.72
2022-08-14T01:37:11.434Z,17.75
2022-08-14T01:37:54.886Z,17.74
2022-08-14T01:38:37.701Z,17.69
2022-08-14T01:39:18.180Z,17.61
2022-08-14T01:39:51.476Z,17.72
2022-08-14T01:40:36.765Z,17.82
2022-08-14T01:41:17.780Z,17.83
2022-08-14T01:42:00.960Z,17.83
2022-08-14T01:42:36.165Z,17.81
2022-08-14T01:43:18.653Z,17.86
2022-08-14T01:44:01.019Z,17.65
2022-08-14T01:44:34.527Z,17.72
2022-08-14T01:45:12.735Z,17.65
2022-08-14T01:46:05.826Z,17.69
2022-08-14T01:46:41.256Z,17.66
2022-08-14T01:47:21.365Z,17.69
2022-08-14T01:48:03.022Z,17.64
2022-08-14T01:48:37.057Z,17.66
2022-08-14T01:49:12.420Z,17.65
2022-08-14T01:49:59.005Z,17.69
2022-08-14T01:50:33.679Z,17.74
2022-08-14T01:51:20.098Z,17.74
2022-08-14T01:51:56.404Z,17.71
2022-08-14T01:52:57.747Z,17.76
2022-08-14T01:53:23.821Z,17.69
2022-08-14T01:54:09.369Z,17.74
2022-08-14T01:54:41.196Z,17.78
2022-08-14T01:55:15.649Z,17.79
2022-08-14T01:55:51.526Z,17.81
2022-08-14T01:56:39.137Z,17.78
2022-08-14T01:57:11.624Z,17.74
2022-08-14T01:58:00.261Z,17.78
2022-08-14T01:58:38.524Z,17.65
2022-08-14T01:59:38.139Z,17.61
2022-08-14T02:01:06.142Z,17.49
2022-08-14T02:01:41.950Z,17.49
2022-08-14T02:02:23.232Z,17.44
2022-08-14T02:02:56.233Z,17.38
2022-08-14T02:03:31.238Z,17.41
2022-08-14T02:04:04.856Z,17.31
2022-08-14T02:04:57.209Z,17.30
2022-08-14T02:05:31.075Z,17.28
2022-08-14T02:06:32.261Z,17.35
2022-08-14T02:06:59.902Z,17.27
2022-08-14T02:07:44.845Z,17.32
2022-08-14T02:08:35.282Z,17.38
2022-08-14T02:09:18.916Z,17.41
2022-08-14T02:09:55.699Z,17.45
2022-08-14T02:10:31.697Z,17.47
2022-08-14T02:11:17.181Z,17.39
2022-08-14T02:11:54.367Z,17.38
2022-08-14T02:12:29.440Z,17.41
2022-08-14T02:13:08.122Z,17.44
2022-08-14T02:13:40.477Z,17.51
2022-08-14T02:14:14.883Z,17.54
2022-08-14T02:15:05.234Z,17.64
2022-08-14T02:15:40.800Z,17.68
2022-08-14T02:16:21.844Z,17.76
2022-08-14T02:16:54.972Z,17.83
2022-08-14T02:17:27.590Z,17.74
2022-08-14T02:18:01.537Z,17.72
2022-08-14T02:18:34.088Z,17.76
2022-08-14T02:19:09.919Z,17.72
2022-08-14T02:19:41.493Z,17.65
2022-08-14T02:20:15.041Z,17.62
2022-08-14T02:20:51.615Z,17.69
2022-08-14T02:21:23.756Z,17.66
2022-08-14T02:22:03.329Z,17.64
2022-08-14T02:22:35.510Z,17.66
2022-08-14T02:23:28.841Z,17.54
2022-08-14T02:24:05.747Z,17.42
2022-08-14T02:24:45.338Z,17.42
2022-08-14T02:25:19.721Z,17.47
2022-08-14T02:25:54.388Z,17.51
2022-08-14T02:26:30.709Z,17.41
2022-08-14T02:28:23.365Z,17.49
2022-08-14T02:28:23.805Z,17.51
2022-08-14T02:28:57.976Z,17.39
2022-08-14T02:29:59.396Z,17.42
2022-08-14T02:30:27.007Z,17.35
2022-08-14T02:31:03.078Z,17.32
2022-08-14T02:31:43.662Z,17.37
2022-08-14T02:32:30.031Z,17.41
2022-08-14T02:33:07.624Z,17.30
2022-08-14T02:33:42.793Z,17.28
2022-08-14T02:34:36.299Z,17.08
2022-08-14T02:35:17.976Z,17.21
2022-08-14T02:35:53.305Z,17.26
2022-08-14T02:37:03.695Z,17.26
2022-08-14T02:37:22.145Z,17.14
2022-08-14T02:37:53.722Z,17.20
2022-08-14T02:38:29.363Z,17.17
2022-08-14T02:39:02.169Z,17.18
2022-08-14T02:39:37.289Z,17.17
2022-08-14T02:40:09.409Z,17.17
2022-08-14T02:40:40.971Z,17.18
2022-08-14T02:41:17.482Z,17.20
2022-08-14T02:41:57.944Z,17.18
2022-08-14T02:42:37.330Z,17.14
2022-08-14T02:43:09.247Z,17.10
2022-08-14T02:43:46.165Z,17.03
2022-08-14T02:44:29.851Z,17.13
2022-08-14T02:45:01.657Z,17.13
2022-08-14T02:45:38.191Z,17.14
2022-08-14T02:46:20.742Z,17.14
2022-08-14T02:47:01.131Z,17.16
2022-08-14T02:47:34.161Z,17.18
2022-08-14T02:49:01.842Z,17.02
2022-08-14T02:49:06.362Z,17.04
2022-08-14T02:49:38.999Z,17.00
2022-08-14T02:50:17.595Z,17.07
2022-08-14T02:50:51.420Z,17.13
2022-08-14T02:51:23.656Z,17.16
2022-08-14T02:52:04.141Z,17.16
2022-08-14T02:53:02.838Z,17.18
2022-08-14T02:53:35.172Z,17.16
2022-08-14T02:54:10.139Z,17.11
2022-08-14T02:54:45.839Z,17.17
2022-08-14T02:55:20.400Z,17.18
2022-08-14T02:55:52.444Z,17.16
2022-08-14T02:56:30.465Z,17.20
2022-08-14T02:57:39.685Z,17.17
2022-08-14T02:58:09.744Z,17.14
2022-08-14T02:58:55.663Z,17.21
2022-08-14T02:59:33.490Z,17.24
2022-08-14T03:00:06.631Z,17.17
2022-08-14T03:00:42.751Z,17.18
2022-08-14T03:01:19.053Z,17.14
2022-08-14T03:01:54.890Z,17.16
2022-08-14T03:02:48.686Z,17.26
2022-08-14T03:03:20.232Z,17.21
2022-08-14T03:03:52.009Z,17.24
2022-08-14T03:04:25.252Z,17.21
2022-08-14T03:04:56.889Z,17.24
2022-08-14T03:05:33.122Z,17.24
2022-08-14T03:06:09.278Z,17.30
2022-08-14T03:06:57.533Z,17.34
2022-08-14T03:07:34.962Z,17.34
2022-08-14T03:08:15.318Z,17.21
2022-08-14T03:08:50.641Z,17.30
2022-08-14T03:09:22.241Z,17.24
2022-08-14T03:10:27.666Z,17.14
2022-08-14T03:10:48.693Z,17.13
2022-08-14T03:11:21.747Z,17.04
2022-08-14T03:11:55.802Z,17.06
2022-08-14T03:12:31.699Z,17.06
2022-08-14T03:13:04.632Z,17.06
2022-08-14T03:13:39.575Z,16.93
2022-08-14T03:14:12.544Z,16.94
2022-08-14T03:14:50.125Z,16.96
2022-08-14T03:15:21.886Z,16.93
2022-08-14T03:15:55.665Z,16.90
2022-08-14T03:16:35.703Z,16.94
2022-08-14T03:17:11.474Z,16.94
2022-08-14T03:17:56.166Z,16.97
2022-08-14T03:18:30.658Z,16.96
2022-08-14T03:19:05.405Z,17.03
2022-08-14T03:19:38.455Z,17.03
2022-08-14T03:20:11.982Z,17.06
2022-08-14T03:20:43.724Z,17.08
2022-08-14T03:21:20.535Z,17.04
2022-08-14T03:21:53.827Z,17.07
2022-08-14T03:22:27.719Z,17.07
2022-08-14T03:23:02.774Z,17.07
2022-08-14T03:23:38.769Z,17.06
2022-08-14T03:24:16.517Z,17.06
2022-08-14T03:24:54.534Z,17.11
2022-08-14T03:25:26.153Z,17.13
2022-08-14T03:25:57.682Z,17.14
2022-08-14T03:26:30.434Z,17.13
2022-08-14T03:27:04.033Z,17.13
2022-08-14T03:27:48.488Z,17.08
2022-08-14T03:28:33.600Z,17.16
2022-08-14T03:29:06.143Z,17.17
2022-08-14T03:29:45.551Z,17.23
2022-08-14T03:30:23.282Z,17.24
2022-08-14T03:30:57.551Z,17.26
2022-08-14T03:31:32.123Z,17.26
2022-08-14T03:32:05.087Z,17.30
2022-08-14T03:32:37.317Z,17.24
2022-08-14T03:33:13.199Z,17.28
2022-08-14T03:33:44.877Z,17.30
2022-08-14T03:34:24.674Z,17.34
2022-08-14T03:35:15.055Z,17.34
2022-08-14T03:36:05.664Z,17.32
2022-08-14T03:37:51.281Z,17.34
2022-08-14T03:38:58.913Z,17.38
2022-08-14T03:39:15.183Z,17.38
2022-08-14T03:39:22.122Z,17.37
2022-08-14T03:39:55.244Z,17.34
2022-08-14T03:40:26.847Z,17.37
2022-08-14T03:40:58.389Z,17.37
2022-08-14T03:41:33.159Z,17.38
2022-08-14T03:42:06.121Z,17.37
2022-08-14T03:42:50.900Z,17.34
2022-08-14T03:43:22.473Z,17.30
2022-08-14T03:44:01.374Z,17.28
2022-08-14T03:45:20.113Z,17.28
2022-08-14T03:45:48.026Z,17.31
2022-08-14T03:46:52.962Z,17.30
2022-08-14T03:47:15.434Z,17.30
2022-08-14T03:47:55.889Z,17.27
2022-08-14T03:48:31.391Z,17.30
2022-08-14T03:49:13.463Z,17.28
2022-08-14T03:49:49.707Z,17.24
2022-08-14T03:50:27.922Z,17.31
2022-08-14T03:51:03.390Z,17.32
2022-08-14T03:51:36.096Z,17.34
2022-08-14T03:52:37.533Z,17.34
2022-08-14T03:53:01.644Z,17.34
2022-08-14T03:53:37.866Z,17.32
2022-08-14T03:54:10.979Z,17.35
2022-08-14T03:54:52.256Z,17.34
2022-08-14T03:55:24.399Z,17.39
2022-08-14T03:55:58.913Z,17.44
2022-08-14T03:56:30.985Z,17.41
2022-08-14T03:57:03.632Z,17.39
2022-08-14T03:57:37.226Z,17.41
2022-08-14T03:58:10.204Z,17.38
2022-08-14T03:58:48.230Z,17.41
2022-08-14T03:59:21.157Z,17.38
2022-08-14T03:59:52.739Z,17.41
2022-08-14T04:00:42.701Z,17.41
2022-08-14T04:01:22.420Z,17.39
2022-08-14T04:02:01.163Z,17.38
2022-08-14T04:02:46.853Z,17.47
2022-08-14T04:03:24.262Z,17.49
2022-08-14T04:04:06.154Z,17.48
2022-08-14T04:04:39.528Z,17.48
2022-08-14T04:05:16.563Z,17.54
2022-08-14T04:05:49.297Z,17.61
2022-08-14T04:06:21.808Z,17.65
2022-08-14T04:07:00.481Z,17.65
2022-08-14T04:07:36.145Z,17.59
2022-08-14T04:08:23.004Z,17.69
2022-08-14T04:09:00.998Z,17.69
2022-08-14T04:09:32.568Z,17.71
2022-08-14T04:10:04.563Z,17.76
2022-08-14T04:10:36.512Z,17.76
2022-08-14T04:11:10.350Z,17.78
2022-08-14T04:11:42.100Z,17.74
2022-08-14T04:12:13.759Z,17.75
2022-08-14T04:12:51.457Z,17.76
2022-08-14T04:13:23.909Z,17.78
2022-08-14T04:13:55.733Z,17.75
2022-08-14T04:14:29.021Z,17.79
2022-08-14T04:15:01.028Z,17.75
2022-08-14T04:15:55.929Z,17.79
2022-08-14T04:16:25.504Z,17.82
2022-08-14T04:17:04.807Z,17.76
2022-08-14T04:17:43.621Z,17.72
2022-08-14T04:18:18.321Z,17.74
2022-08-14T04:18:54.853Z,17.74
2022-08-14T04:19:28.063Z,17.71
2022-08-14T04:20:07.364Z,17.71
2022-08-14T04:20:54.936Z,17.68
2022-08-14T04:21:29.480Z,17.62
2022-08-14T04:22:04.072Z,17.62
2022-08-14T04:22:36.790Z,17.65
2022-08-14T04:23:23.202Z,17.68
2022-08-14T04:23:58.188Z,17.74
2022-08-14T04:24:30.816Z,17.74
2022-08-14T04:25:10.361Z,17.76
2022-08-14T04:25:42.765Z,17.74
2022-08-14T04:26:38.785Z,17.71
2022-08-14T04:27:11.785Z,17.71
2022-08-14T04:27:48.697Z,17.79
2022-08-14T04:29:05.396Z,17.76
2022-08-14T04:29:28.474Z,17.75
2022-08-14T04:30:06.117Z,17.75
2022-08-14T04:30:39.308Z,17.74
2022-08-14T04:31:15.319Z,17.69
2022-08-14T04:32:58.245Z,17.71
2022-08-14T04:33:02.794Z,17.69
2022-08-14T04:33:30.384Z,17.74
2022-08-14T04:34:05.455Z,17.79
2022-08-14T04:34:42.389Z,17.79
2022-08-14T04:35:23.801Z,17.71
2022-08-14T04:35:57.256Z,17.72
2022-08-14T04:36:28.811Z,17.72
2022-08-14T04:37:24.962Z,17.75
2022-08-14T04:38:36.578Z,17.78
2022-08-14T04:39:25.710Z,17.85
2022-08-14T04:40:15.878Z,17.86
2022-08-14T04:41:05.802Z,17.90
2022-08-14T04:41:55.669Z,17.89
2022-08-14T04:42:46.810Z,17.86
2022-08-14T04:43:39.829Z,17.83
2022-08-14T04:44:26.360Z,17.82
2022-08-14T04:45:02.957Z,17.89
2022-08-14T04:45:40.673Z,17.78
2022-08-14T04:46:56.315Z,17.86
2022-08-14T04:47:25.295Z,17.89
2022-08-14T04:48:38.811Z,17.97
2022-08-14T04:49:07.970Z,17.96
2022-08-14T04:49:46.586Z,18.02
2022-08-14T04:50:37.875Z,17.97
2022-08-14T04:51:21.307Z,17.97
2022-08-14T04:51:56.369Z,17.99
2022-08-14T04:52:28.502Z,17.97
2022-08-14T04:53:00.050Z,17.95
2022-08-14T04:53:35.371Z,18.02
2022-08-14T04:54:07.749Z,18.06
2022-08-14T04:54:40.462Z,18.13
2022-08-14T04:55:12.353Z,18.13
2022-08-14T04:55:49.961Z,18.16
2022-08-14T04:56:33.898Z,18.14
2022-08-14T04:57:06.217Z,18.20
2022-08-14T04:57:39.081Z,18.22
2022-08-14T04:58:21.706Z,18.30
2022-08-14T04:59:10.052Z,18.32
2022-08-14T04:59:42.832Z,18.29
2022-08-14T05:00:16.121Z,18.30
2022-08-14T05:00:52.196Z,18.37
2022-08-14T05:01:26.281Z,18.38
2022-08-14T05:01:58.366Z,18.41
2022-08-14T05:02:30.059Z,18.47
2022-08-14T05:03:07.693Z,18.48
2022-08-14T05:03:39.821Z,18.55
2022-08-14T05:04:16.082Z,18.60
2022-08-14T05:04:57.026Z,18.65
2022-08-14T05:05:32.242Z,18.64
2022-08-14T05:06:07.800Z,18.72
2022-08-14T05:06:59.378Z,18.84
2022-08-14T05:07:46.510Z,18.87
2022-08-14T05:08:31.691Z,18.81
2022-08-14T05:09:14.270Z,18.91
2022-08-14T05:09:47.993Z,18.88
2022-08-14T05:10:24.814Z,18.94
2022-08-14T05:10:58.868Z,18.99
2022-08-14T05:11:33.363Z,19.08
2022-08-14T05:13:14.320Z,19.05
2022-08-14T05:13:24.313Z,19.13
2022-08-14T05:14:33.756Z,19.16
2022-08-14T05:14:53.485Z,19.18
2022-08-14T05:15:29.454Z,19.22
2022-08-14T05:16:06.823Z,19.26
2022-08-14T05:16:40.810Z,19.27
2022-08-14T05:17:13.084Z,19.25
2022-08-14T05:17:53.961Z,19.23
2022-08-14T05:19:17.054Z,19.27
2022-08-14T05:19:28.989Z,19.33
2022-08-14T05:21:04.953Z,19.36
2022-08-14T05:21:54.944Z,19.50
2022-08-14T05:21:57.088Z,19.52
2022-08-14T05:22:30.207Z,19.59
2022-08-14T05:23:02.360Z,19.63
2022-08-14T05:23:39.851Z,19.63
2022-08-14T05:24:16.911Z,19.64
2022-08-14T05:24:51.232Z,19.66
2022-08-14T05:25:23.042Z,19.67
2022-08-14T05:26:03.257Z,19.74
2022-08-14T05:26:34.817Z,19.80
2022-08-14T05:27:07.049Z,19.78
2022-08-14T05:27:39.573Z,19.77
2022-08-14T05:28:18.835Z,19.80
2022-08-14T05:28:52.160Z,19.85
2022-08-14T05:29:23.715Z,19.85
2022-08-14T05:29:56.676Z,19.93
2022-08-14T05:30:28.793Z,19.91
2022-08-14T05:31:04.341Z,19.98
2022-08-14T05:31:40.544Z,20.07
2022-08-14T05:32:13.432Z,20.10
2022-08-14T05:32:46.917Z,20.17
2022-08-14T05:33:19.801Z,20.18
2022-08-14T05:33:54.932Z,20.20
2022-08-14T05:34:31.824Z,20.25
2022-08-14T05:35:04.269Z,20.29
2022-08-14T05:35:37.385Z,20.31
2022-08-14T05:36:16.776Z,20.33
2022-08-14T05:36:50.417Z,20.28
2022-08-14T05:37:30.936Z,20.38
2022-08-14T05:38:22.264Z,20.43
2022-08-14T05:39:03.752Z,20.51
2022-08-14T05:39:35.355Z,20.46
2022-08-14T05:40:10.374Z,20.42
2022-08-14T05:40:44.570Z,20.43
2022-08-14T05:41:19.060Z,20.48
2022-08-14T05:41:52.585Z,20.55
2022-08-14T05:42:27.115Z,20.53
2022-08-14T05:43:03.330Z,20.52
2022-08-14T05:43:41.905Z,20.55
2022-08-14T05:44:15.713Z,20.62
2022-08-14T05:44:47.351Z,20.63
2022-08-14T05:45:21.197Z,20.68
2022-08-14T05:45:53.633Z,20.69
2022-08-14T05:46:26.586Z,20.76
2022-08-14T05:46:59.847Z,20.77
2022-08-14T05:47:39.012Z,20.77
2022-08-14T05:48:32.706Z,20.80
2022-08-14T05:49:05.563Z,20.81
2022-08-14T05:49:40.651Z,20.81
2022-08-14T05:50:17.314Z,20.83
2022-08-14T05:50:54.732Z,20.93
2022-08-14T05:51:28.481Z,20.96
2022-08-14T05:52:02.711Z,21.00
2022-08-14T05:52:39.128Z,20.99
2022-08-14T05:53:11.278Z,20.99
2022-08-14T05:53:43.081Z,20.97
2022-08-14T05:54:26.689Z,21.01
2022-08-14T05:54:58.933Z,21.06
2022-08-14T05:55:30.881Z,21.06
2022-08-14T05:56:03.572Z,21.07
2022-08-14T05:56:36.867Z,21.07
2022-08-14T05:57:09.476Z,21.11
2022-08-14T05:57:59.436Z,21.12
2022-08-14T05:58:33.928Z,21.15
2022-08-14T05:59:12.712Z,21.18
2022-08-14T05:59:48.321Z,21.18
2022-08-14T06:00:29.150Z,21.26
2022-08-14T06:01:02.392Z,21.30
2022-08-14T06:01:34.282Z,21.34
2022-08-14T06:02:10.956Z,21.32
2022-08-14T06:02:43.247Z,21.39
2022-08-14T06:03:19.033Z,21.47
2022-08-14T06:03:51.120Z,21.54
2022-08-14T06:04:26.275Z,21.61
2022-08-14T06:05:02.598Z,21.59
2022-08-14T06:05:35.106Z,21.63
2022-08-14T06:06:10.631Z,21.74
2022-08-14T06:06:43.346Z,21.71
2022-08-14T06:07:15.765Z,21.75
2022-08-14T06:07:47.338Z,21.76
2022-08-14T06:08:35.705Z,21.79
2022-08-14T06:09:10.493Z,21.89
2022-08-14T06:09:42.217Z,21.92
2022-08-14T06:10:13.927Z,21.99
2022-08-14T06:10:52.959Z,22.03
2022-08-14T06:11:30.846Z,22.17
2022-08-14T06:12:03.291Z,22.24
2022-08-14T06:12:55.484Z,22.29
2022-08-14T06:13:31.719Z,22.16
2022-08-14T06:14:21.312Z,22.20
2022-08-14T06:14:55.705Z,22.24
2022-08-14T06:15:30.588Z,22.29
2022-08-14T06:16:02.767Z,22.36
2022-08-14T06:16:34.327Z,22.39
2022-08-14T06:17:08.021Z,22.50
2022-08-14T06:17:58.906Z,22.58
2022-08-14T06:18:32.378Z,22.63
2022-08-14T06:19:04.086Z,22.68
2022-08-14T06:19:36.665Z,22.72
2022-08-14T06:20:10.366Z,22.75
2022-08-14T06:20:42.388Z,22.79
2022-08-14T06:21:15.917Z,22.91
2022-08-14T06:21:52.092Z,22.90
2022-08-14T06:22:29.786Z,22.95
2022-08-14T06:23:01.609Z,22.92
2022-08-14T06:23:33.798Z,22.91
2022-08-14T06:24:05.557Z,23.01
2022-08-14T06:24:43.969Z,22.99
2022-08-14T06:25:16.237Z,23.05
2022-08-14T06:25:52.637Z,23.11
2022-08-14T06:26:30.181Z,23.25
2022-08-14T06:27:06.060Z,23.27
2022-08-14T06:27:44.117Z,23.27
2022-08-14T06:28:27.279Z,23.38
2022-08-14T06:28:59.924Z,23.30
2022-08-14T06:29:34.671Z,23.30
2022-08-14T06:30:09.455Z,22.95
2022-08-14T06:30:47.243Z,22.96
2022-08-14T06:31:19.815Z,23.14
2022-08-14T06:31:54.786Z,23.14
2022-08-14T06:32:38.175Z,23.08
2022-08-14T06:33:10.894Z,23.20
2022-08-14T06:35:04.644Z,23.09
2022-08-14T06:35:09.492Z,23.15
2022-08-14T06:35:26.380Z,23.09
2022-08-14T06:35:58.322Z,23.14
2022-08-14T06:36:30.503Z,23.14
2022-08-14T06:37:02.048Z,23.20
2022-08-14T06:38:00.820Z,23.36
2022-08-14T06:38:36.117Z,23.33
2022-08-14T06:39:10.299Z,23.35
2022-08-14T06:39:42.392Z,23.35
2022-08-14T06:40:26.909Z,23.42
2022-08-14T06:40:59.671Z,23.45
2022-08-14T06:41:56.581Z,23.56
2022-08-14T06:42:32.377Z,23.73
2022-08-14T06:43:07.473Z,23.66
2022-08-14T06:43:39.026Z,23.70
2022-08-14T06:44:16.994Z,23.60
2022-08-14T06:44:48.546Z,23.69
2022-08-14T06:45:26.106Z,23.63
2022-08-14T06:45:58.071Z,23.75
2022-08-14T06:46:34.009Z,23.77
2022-08-14T06:47:06.193Z,23.74
2022-08-14T06:47:43.882Z,23.83
2022-08-14T06:48:21.557Z,23.81
2022-08-14T06:48:53.250Z,23.84
2022-08-14T06:49:27.296Z,23.94
2022-08-14T06:50:03.961Z,24.01
2022-08-14T06:50:36.611Z,24.11
2022-08-14T06:51:08.265Z,24.10
2022-08-14T06:51:46.823Z,24.12
2022-08-14T06:52:25.057Z,24.22
2022-08-14T06:53:16.011Z,24.22
2022-08-14T06:53:49.796Z,24.08
2022-08-14T06:54:23.222Z,24.14
2022-08-14T06:55:03.569Z,24.28
2022-08-14T06:55:36.986Z,24.21
2022-08-14T06:56:19.855Z,24.22
2022-08-14T06:56:54.503Z,24.25
2022-08-14T06:57:48.669Z,24.35
2022-08-14T06:58:28.482Z,24.41
2022-08-14T06:59:01.276Z,24.45
2022-08-14T06:59:52.441Z,24.48
2022-08-14T07:00:27.445Z,24.48
2022-08-14T07:01:31.106Z,24.52
2022-08-14T07:02:21.662Z,24.32
2022-08-14T07:03:13.785Z,24.49
2022-08-14T07:04:07.200Z,24.65
2022-08-14T07:05:11.167Z,24.70
2022-08-14T07:05:55.954Z,24.79
2022-08-14T07:06:46.345Z,24.94
2022-08-14T07:07:18.697Z,25.04
2022-08-14T07:07:51.319Z,25.16
2022-08-14T07:08:29.799Z,25.24
2022-08-14T07:09:05.044Z,25.34
2022-08-14T07:09:43.786Z,25.24
2022-08-14T07:10:25.006Z,25.35
2022-08-14T07:11:00.118Z,25.45
2022-08-14T07:11:33.029Z,25.47
2022-08-14T07:12:06.669Z,25.31
2022-08-14T07:13:02.164Z,25.45
2022-08-14T07:13:31.229Z,25.58
2022-08-14T07:14:02.839Z,25.58
2022-08-14T07:14:35.312Z,25.64
2022-08-14T07:15:07.511Z,25.68
2022-08-14T07:15:40.032Z,25.75
2022-08-14T07:16:14.168Z,25.78
2022-08-14T07:16:50.722Z,25.81
2022-08-14T07:17:22.289Z,25.78
2022-08-14T07:17:54.624Z,25.81
2022-08-14T07:18:30.955Z,25.88
2022-08-14T07:19:02.838Z,26.12
2022-08-14T07:19:34.405Z,26.12
2022-08-14T07:20:08.999Z,26.07
2022-08-14T07:20:42.221Z,26.10
2022-08-14T07:21:16.124Z,26.20
2022-08-14T07:21:48.244Z,26.12
2022-08-14T07:22:20.576Z,26.29
2022-08-14T07:22:57.135Z,26.39
2022-08-14T07:23:31.046Z,26.46
2022-08-14T07:24:03.981Z,26.51
2022-08-14T07:24:36.245Z,26.57
2022-08-14T07:25:08.110Z,26.56
2022-08-14T07:25:42.223Z,26.57
2022-08-14T07:26:15.978Z,26.64
2022-08-14T07:26:47.542Z,26.68
2022-08-14T07:27:19.079Z,26.85
2022-08-14T07:27:54.978Z,26.96
2022-08-14T07:28:33.267Z,26.94
2022-08-14T07:29:04.827Z,26.94
2022-08-14T07:29:38.441Z,26.85
2022-08-14T07:30:34.585Z,26.91
2022-08-14T07:31:06.494Z,27.01
2022-08-14T07:31:38.146Z,27.16
2022-08-14T07:32:11.257Z,27.16
2022-08-14T07:32:51.896Z,27.22
2022-08-14T07:33:30.176Z,27.24
2022-08-14T07:34:01.941Z,27.36
2022-08-14T07:34:40.749Z,27.32
2022-08-14T07:35:13.006Z,27.42
2022-08-14T07:35:58.455Z,27.57
2022-08-14T07:36:31.325Z,27.56
2022-08-14T07:37:03.134Z,27.59
2022-08-14T07:37:34.854Z,27.80
2022-08-14T07:38:07.803Z,27.89
2022-08-14T07:38:43.493Z,28.07
2022-08-14T07:39:27.804Z,28.15
2022-08-14T07:39:59.676Z,28.10
2022-08-14T07:40:31.605Z,28.20
2022-08-14T07:41:14.825Z,28.40
2022-08-14T07:41:48.246Z,28.31
2022-08-14T07:42:22.718Z,28.48
2022-08-14T07:42:54.581Z,28.37
2022-08-14T07:43:26.300Z,28.04
2022-08-14T07:43:57.915Z,27.98
2022-08-14T07:44:35.549Z,27.98
2022-08-14T07:45:08.145Z,27.82
2022-08-14T07:45:41.339Z,27.91
2022-08-14T07:46:14.769Z,27.84
2022-08-14T07:46:53.044Z,27.87
2022-08-14T07:47:24.731Z,27.96
2022-08-14T07:47:57.938Z,28.11
2022-08-14T07:48:29.829Z,28.42
2022-08-14T07:49:01.493Z,28.68
2022-08-14T07:49:34.230Z,28.89
2022-08-14T07:50:13.913Z,29.16
2022-08-14T07:50:50.773Z,28.98
2022-08-14T07:51:23.045Z,29.19
2022-08-14T07:51:56.727Z,29.03
2022-08-14T07:52:31.990Z,28.86
2022-08-14T07:53:03.809Z,28.92
2022-08-14T07:53:39.243Z,29.16
2022-08-14T07:54:12.492Z,29.16
2022-08-14T07:54:48.129Z,29.19
2022-08-14T07:55:21.058Z,29.24
2022-08-14T07:56:08.958Z,29.33
2022-08-14T07:56:48.913Z,29.55
2022-08-14T07:57:24.830Z,29.43
2022-08-14T07:57:56.781Z,29.19
2022-08-14T07:58:33.894Z,29.14
2022-08-14T07:59:06.637Z,29.71
2022-08-14T07:59:43.576Z,29.79
2022-08-14T08:00:30.905Z,29.88
2022-08-14T08:01:03.517Z,29.72
2022-08-14T08:01:35.321Z,29.84
2022-08-14T08:02:19.458Z,29.96
2022-08-14T08:02:55.906Z,29.84
2022-08-14T08:03:35.018Z,29.90
2022-08-14T08:04:16.427Z,30.05
2022-08-14T08:04:55.109Z,30.15
2022-08-14T08:05:31.303Z,30.27
2022-08-14T08:06:03.237Z,30.41
2022-08-14T08:06:42.297Z,30.20
2022-08-14T08:07:13.891Z,30.43
2022-08-14T08:07:47.589Z,30.16
2022-08-14T08:08:26.886Z,30.25
2022-08-14T08:09:01.207Z,30.66
2022-08-14T08:09:36.941Z,30.53
2022-08-14T08:10:46.407Z,30.78